Time;durP1;ratioP1;P1;durP2;ratioP2;P2;SDS_P1;SDS_P2;PMS_P1;PMS_P2;Temp;Humidity;BMP_temperature;BMP_pressure;BME280_temperature;BME280_humidity;BME280_pressure;Samples;Min_cycle;Max_cycle;Signal;HPM_P1;HPM_P2
2022/11/28 00:02:27;;;;;;;5.95;3.50;;;;;;;;;;4978735;28;20054;-87
2022/11/28 00:07:56;;;;;;;7.32;3.20;;;;;;;;;;4994145;28;20176;-87
2022/11/28 00:10:31;;;;;;;;;;;;;;;;;;4972499;28;20050;-88
2022/11/28 00:13:16;;;;;;;;;;;;;;;;;;;;;
2022/11/28 00:16:07;;;;;;;7.57;3.92;;;;;;;;;;4973052;28;43076;-87
2022/11/28 00:18:52;;;;;;;6.57;3.03;;;;;;;;;;4987611;28;21066;-87
2022/11/28 00:21:26;;;;;;;6.13;4.32;;;;;;;;;;4971556;28;20531;-87
2022/11/28 00:27:06;;;;;;;4.85;3.17;;;;;;;;;;4972919;28;20158;-88
2022/11/28 00:29:55;;;;;;;4.13;2.90;;;;;;;;;;4979540;28;20105;-87
2022/11/28 00:32:25;;;;;;;5.55;3.15;;;;;;;;;;4974435;28;20046;-87
2022/11/28 00:35:22;;;;;;;6.03;3.03;;;;;;;;;;4970695;28;20051;-87
2022/11/28 00:37:59;;;;;;;8.10;3.40;;;;;;;;;;4972625;28;20047;-87
2022/11/28 00:40:48;;;;;;;4.45;2.88;;;;;;;;;;4976114;28;20055;-87
2022/11/28 00:43:26;;;;;;;;;;;;;;;;;;;;;
2022/11/28 00:46:04;;;;;;;5.43;2.58;;;;;;;;;;4981984;28;44867;-87
2022/11/28 00:48:43;;;;;;;4.10;2.65;;;;;;;;;;4989715;28;20046;-87
2022/11/28 00:51:49;;;;;;;6.10;3.17;;;;;;;;;;4975252;28;20121;-87
2022/11/28 00:54:46;;;;;;;2.88;2.00;;;;;;;;;;5006604;28;20058;-87
2022/11/28 00:57:15;;;;;;;4.63;2.70;;;;;;;;;;4999036;28;20611;-88
2022/11/28 00:59:41;;;;;;;5.35;3.15;;;;;;;;;;4992234;28;20153;-88
2022/11/28 01:02:19;;;;;;;4.95;2.60;;;;;;;;;;4993543;28;20054;-87
2022/11/28 01:04:53;;;;;;;3.60;2.63;;;;;;;;;;4990885;28;20045;-87
2022/11/28 01:07:27;;;;;;;4.88;2.55;;;;;;;;;;4993145;28;20132;-87
2022/11/28 01:10:10;;;;;;;4.22;3.08;;;;;;;;;;4992688;28;20046;-87
2022/11/28 01:12:50;;;;;;;6.53;3.17;;;;;;;;;;4987821;28;20089;-87
2022/11/28 01:15:21;;;;;;;4.18;2.58;;;;;;;;;;4990959;28;20050;-87
2022/11/28 01:18:05;;;;;;;4.13;2.35;;;;;;;;;;5009608;28;20092;-88
2022/11/28 01:20:33;;;;;;;5.25;2.65;;;;;;;;;;4993861;28;20037;-87
2022/11/28 01:23:35;;;;;;;6.40;3.72;;;;;;;;;;4989170;28;20042;-87
2022/11/28 01:26:25;;;;;;;4.38;2.47;;;;;;;;;;4991050;28;20566;-87
2022/11/28 01:29:04;;;;;;;3.75;2.20;;;;;;;;;;4991443;28;20549;-87
2022/11/28 01:31:47;;;;;;;5.10;2.40;;;;;;;;;;4989233;28;20051;-87
2022/11/28 01:34:27;;;;;;;3.50;2.40;;;;;;;;;;4989086;28;20042;-88
2022/11/28 01:37:18;;;;;;;3.55;2.72;;;;;;;;;;4990372;28;20133;-86
2022/11/28 01:39:52;;;;;;;3.95;2.17;;;;;;;;;;4987496;28;20050;-87
2022/11/28 01:42:26;;;;;;;5.00;2.53;;;;;;;;;;5009129;28;20050;-87
2022/11/28 01:45:11;;;;;;;2.90;1.90;;;;;;;;;;4990671;28;20794;-87
2022/11/28 01:48:01;;;;;;;3.33;2.03;;;;;;;;;;4992173;28;20046;-87
2022/11/28 01:50:57;;;;;;;7.78;3.10;;;;;;;;;;4991190;28;20181;-87
2022/11/28 01:53:42;;;;;;;4.40;2.55;;;;;;;;;;4999558;28;20123;-86
2022/11/28 01:56:43;;;;;;;3.60;2.00;;;;;;;;;;5009803;28;20205;-87
2022/11/28 02:02:59;;;;;;;19.65;3.67;;;;;;;;;;4991730;28;20066;-87
2022/11/28 02:08:26;;;;;;;6.72;2.97;;;;;;;;;;4872657;29;20109;-87
2022/11/28 02:11:08;;;;;;;4.43;3.00;;;;;;;;;;4982818;28;21128;-87
2022/11/28 02:14:06;;;;;;;;;;;;;;;;;;;;;
2022/11/28 02:16:41;;;;;;;5.30;3.83;;;;;;;;;;5007349;28;44158;-87
2022/11/28 02:19:28;;;;;;;4.68;3.75;;;;;;;;;;5027515;28;20080;-87
2022/11/28 02:22:17;;;;;;;4.43;3.22;;;;;;;;;;5008815;28;20038;-87
2022/11/28 02:25:06;;;;;;;7.80;5.35;;;;;;;;;;5007881;28;20107;-87
2022/11/28 02:27:55;;;;;;;7.82;4.63;;;;;;;;;;5029218;28;20038;-87
2022/11/28 02:30:58;;;;;;;11.40;4.70;;;;;;;;;;5028531;28;20050;-87
2022/11/28 02:33:30;;;;;;;;;;;;;;;;;;5007477;28;20570;-87
2022/11/28 02:36:20;;;;;;;7.57;5.25;;;;;;;;;;5019274;28;19936;-87
2022/11/28 02:39:18;;;;;;;6.85;4.13;;;;;;;;;;5001125;28;20045;-86
2022/11/28 02:41:51;;;;;;;5.40;3.50;;;;;;;;;;5015308;28;20074;-86
2022/11/28 02:44:42;;;;;;;5.53;3.67;;;;;;;;;;5015441;28;20094;-87
2022/11/28 02:47:45;;;;;;;3.65;2.53;;;;;;;;;;5029539;28;20124;-86
2022/11/28 02:53:09;;;;;;;6.65;3.45;;;;;;;;;;5014877;28;20057;-86
2022/11/28 02:56:16;;;;;;;5.43;3.20;;;;;;;;;;5014006;28;20046;-87
2022/11/28 02:59:09;;;;;;;;;;;;;;;;;;;;;
2022/11/28 03:01:43;;;;;;;8.57;3.75;;;;;;;;;;5014247;28;42686;-87
2022/11/28 03:04:21;;;;;;;6.25;3.15;;;;;;;;;;5015531;28;20539;-87
2022/11/28 03:07:01;;;;;;;4.40;2.60;;;;;;;;;;5014150;28;20057;-87
2022/11/28 03:09:46;;;;;;;6.13;3.15;;;;;;;;;;5017046;28;20049;-87
2022/11/28 03:12:21;;;;;;;8.68;3.28;;;;;;;;;;5025888;28;20056;-86
2022/11/28 03:15:00;;;;;;;6.25;3.60;;;;;;;;;;5022776;28;21094;-86
2022/11/28 03:17:45;;;;;;;5.47;3.30;;;;;;;;;;5034929;28;20535;-87
2022/11/28 03:20:17;;;;;;;6.82;4.57;;;;;;;;;;5031690;28;20050;-86
2022/11/28 03:22:59;;;;;;;;;;;;;;;;;;5032595;28;20626;-87
2022/11/28 03:25:35;;;;;;;6.55;4.05;;;;;;;;;;5026937;28;19921;-87
2022/11/28 03:28:21;;;;;;;8.32;3.38;;;;;;;;;;5032070;28;20103;-87
2022/11/28 03:30:59;;;;;;;10.23;4.82;;;;;;;;;;5010828;28;20531;-86
2022/11/28 03:36:35;;;;;;;6.10;3.78;;;;;;;;;;5031397;28;20591;-87
2022/11/28 03:39:35;;;;;;;9.32;3.55;;;;;;;;;;5012620;28;20046;-87
2022/11/28 03:42:12;;;;;;;8.77;3.88;;;;;;;;;;4990293;28;20190;-87
2022/11/28 03:44:52;;;;;;;7.57;3.72;;;;;;;;;;5032414;28;20041;-88
2022/11/28 03:47:30;;;;;;;7.78;4.38;;;;;;;;;;5016146;28;20110;-87
2022/11/28 03:50:07;;;;;;;7.53;4.53;;;;;;;;;;5030593;28;20193;-87
2022/11/28 03:52:36;;;;;;;6.97;4.65;;;;;;;;;;5011230;28;20208;-86
2022/11/28 03:55:22;;;;;;;5.72;3.92;;;;;;;;;;5014137;28;20083;-86
2022/11/28 03:58:07;;;;;;;8.40;4.65;;;;;;;;;;5014372;28;20089;-87
2022/11/28 04:00:52;;;;;;;6.35;3.95;;;;;;;;;;5013209;28;20052;-87
2022/11/28 04:03:40;;;;;;;7.82;4.35;;;;;;;;;;5015883;28;20041;-86
2022/11/28 04:06:38;;;;;;;7.78;4.05;;;;;;;;;;4995650;28;20060;-86
2022/11/28 04:09:25;;;;;;;6.25;3.97;;;;;;;;;;5008291;28;20052;-87
2022/11/28 04:12:08;;;;;;;8.23;4.70;;;;;;;;;;5012503;28;20038;-87
2022/11/28 04:14:50;;;;;;;7.22;3.75;;;;;;;;;;4994562;28;20707;-87
2022/11/28 04:20:57;;;;;;;9.43;4.60;;;;;;;;;;4993034;28;20058;-87
2022/11/28 04:23:48;;;;;;;8.50;4.45;;;;;;;;;;4994209;28;20057;-87
2022/11/28 04:26:42;;;;;;;9.93;4.93;;;;;;;;;;4990444;28;20535;-87
2022/11/28 04:29:15;;;;;;;7.78;4.50;;;;;;;;;;4991726;28;20149;-86
2022/11/28 04:31:45;;;;;;;10.75;6.00;;;;;;;;;;4991357;28;20524;-86
2022/11/28 04:34:41;;;;;;;11.13;4.68;;;;;;;;;;5009279;28;20646;-87
2022/11/28 04:37:25;;;;;;;8.68;5.35;;;;;;;;;;4993454;28;20089;-86
2022/11/28 04:40:05;;;;;;;9.90;5.68;;;;;;;;;;4991374;28;20045;-85
2022/11/28 04:45:55;;;;;;;10.93;4.97;;;;;;;;;;4996048;28;20975;-87
2022/11/28 04:49:01;;;;;;;7.53;4.10;;;;;;;;;;4996045;28;20062;-87
2022/11/28 04:55:02;;;;;;;7.20;4.13;;;;;;;;;;5009602;28;20988;-87
2022/11/28 04:57:49;;;;;;;8.27;4.60;;;;;;;;;;5031200;28;20062;-87
2022/11/28 05:00:24;;;;;;;12.82;4.93;;;;;;;;;;5015472;28;20550;-87
2022/11/28 05:03:03;;;;;;;8.50;4.43;;;;;;;;;;5017779;28;20037;-87
2022/11/28 05:05:29;;;;;;;9.40;6.30;;;;;;;;;;5017428;28;20483;-87
2022/11/28 05:08:11;;;;;;;10.15;4.93;;;;;;;;;;5023539;28;20970;-87
2022/11/28 05:14:17;;;;;;;14.13;5.13;;;;;;;;;;5014030;28;20046;-87
2022/11/28 05:20:00;;;;;;;7.38;4.82;;;;;;;;;;4952425;28;20050;-87
2022/11/28 05:22:53;;;;;;;8.32;4.22;;;;;;;;;;5000335;28;20057;-86
2022/11/28 05:25:38;;;;;;;8.55;4.47;;;;;;;;;;5010984;28;20553;-87
2022/11/28 05:28:24;;;;;;;12.63;5.53;;;;;;;;;;5025132;28;20945;-86
2022/11/28 05:31:07;;;;;;;10.10;4.50;;;;;;;;;;5024490;28;20049;-87
2022/11/28 05:33:44;;;;;;;10.85;4.70;;;;;;;;;;5006417;28;20847;-87
2022/11/28 05:36:20;;;;;;;10.77;5.18;;;;;;;;;;5004576;28;20540;-86
2022/11/28 05:39:04;;;;;;;13.82;5.63;;;;;;;;;;5006556;28;20049;-86
2022/11/28 05:41:58;;;;;;;9.90;4.25;;;;;;;;;;5006773;28;20484;-86
2022/11/28 05:45:04;;;;;;;;;;;;;;;;;;;;;
2022/11/28 05:47:37;;;;;;;7.13;4.63;;;;;;;;;;5004181;28;43616;-86
2022/11/28 05:50:19;;;;;;;10.93;4.60;;;;;;;;;;5011957;28;20784;-87
2022/11/28 05:53:02;;;;;;;8.82;4.72;;;;;;;;;;5010918;28;20054;-86
2022/11/28 05:55:57;;;;;;;12.20;5.13;;;;;;;;;;5024281;28;20058;-86
2022/11/28 05:59:06;;;;;;;12.82;4.57;;;;;;;;;;5007076;28;20953;-86
2022/11/28 06:01:35;;;;;;;14.98;4.80;;;;;;;;;;4987348;28;20060;-86
2022/11/28 06:07:45;;;;;;;9.73;4.97;;;;;;;;;;4969347;28;20051;-84
2022/11/28 06:10:21;;;;;;;12.17;5.30;;;;;;;;;;4972060;28;20043;-84
2022/11/28 06:13:05;;;;;;;12.48;4.72;;;;;;;;;;4989874;28;20058;-83
2022/11/28 06:15:47;;;;;;;20.65;7.82;;;;;;;;;;4972607;28;20134;-82
2022/11/28 06:18:19;;;;;;;14.70;4.55;;;;;;;;;;4984590;28;20068;-82
2022/11/28 06:20:59;;;;;;;7.85;4.70;;;;;;;;;;5014628;28;20041;-83
2022/11/28 06:23:32;;;;;;;16.70;3.88;;;;;;;;;;5014138;28;20165;-82
2022/11/28 06:26:12;;;;;;;11.43;5.22;;;;;;;;;;5011429;28;20165;-82
2022/11/28 06:28:50;;;;;;;9.63;3.80;;;;;;;;;;5030696;28;20052;-83
2022/11/28 06:31:20;;;;;;;13.70;4.55;;;;;;;;;;5014871;28;20871;-83
2022/11/28 06:34:07;;;;;;;13.32;5.85;;;;;;;;;;5029027;28;20061;-82
2022/11/28 06:36:34;;;;;;;7.30;4.07;;;;;;;;;;5029311;28;20053;-81
2022/11/28 06:39:17;;;;;;;18.77;4.82;;;;;;;;;;5013954;28;20048;-83
2022/11/28 06:41:53;;;;;;;12.57;5.30;;;;;;;;;;5028804;28;20093;-82
2022/11/28 06:44:43;;;;;;;12.75;3.78;;;;;;;;;;5032554;28;20038;-83
2022/11/28 06:47:29;;;;;;;12.43;5.07;;;;;;;;;;5011745;28;20056;-83
2022/11/28 06:50:03;;;;;;;8.00;4.60;;;;;;;;;;5013625;28;20097;-83
2022/11/28 06:55:29;;;;;;;16.45;5.32;;;;;;;;;;5014175;28;20116;-83
2022/11/28 06:58:04;;;;;;;20.20;5.63;;;;;;;;;;5029199;28;20050;-80
2022/11/28 07:00:42;;;;;;;11.55;4.32;;;;;;;;;;5027605;28;20050;-82
2022/11/28 07:03:40;;;;;;;14.80;4.95;;;;;;;;;;5017773;28;20052;-83
2022/11/28 07:06:09;;;;;;;15.18;7.22;;;;;;;;;;5018189;28;20038;-82
2022/11/28 07:08:45;;;;;;;10.27;4.85;;;;;;;;;;5015045;28;20049;-82
2022/11/28 07:11:51;;;;;;;14.52;4.68;;;;;;;;;;5013997;28;20050;-81
2022/11/28 07:14:32;;;;;;;13.20;4.70;;;;;;;;;;4970089;28;20983;-90
2022/11/28 07:17:05;;;;;;;14.68;5.28;;;;;;;;;;5023250;28;20102;-80
2022/11/28 07:19:38;;;;;;;15.63;4.85;;;;;;;;;;5018264;28;20971;-82
2022/11/28 07:22:22;;;;;;;11.57;5.15;;;;;;;;;;5037734;28;20061;-82
2022/11/28 07:24:58;;;;;;;15.48;5.93;;;;;;;;;;5046239;28;20077;-81
2022/11/28 07:27:33;;;;;;;11.60;5.38;;;;;;;;;;5021437;28;20566;-80
2022/11/28 07:30:09;;;;;;;11.25;5.03;;;;;;;;;;5031099;28;20042;-81
2022/11/28 07:32:43;;;;;;;13.48;4.53;;;;;;;;;;5034879;28;20061;-81
2022/11/28 07:35:27;;;;;;;13.40;5.40;;;;;;;;;;5036373;28;20631;-81
2022/11/28 07:38:01;;;;;;;22.45;6.80;;;;;;;;;;5034744;28;20108;-82
2022/11/28 07:40:35;;;;;;;12.48;4.20;;;;;;;;;;5021004;28;20524;-82
2022/11/28 07:43:03;;;;;;;11.38;4.95;;;;;;;;;;5016823;28;20516;-82
2022/11/28 07:45:48;;;;;;;12.40;4.97;;;;;;;;;;5019556;28;20521;-82
2022/11/28 07:48:19;;;;;;;13.30;5.63;;;;;;;;;;5021857;28;20522;-80
2022/11/28 07:50:48;;;;;;;13.95;5.13;;;;;;;;;;5012642;28;20061;-81
2022/11/28 07:53:17;;;;;;;19.50;5.22;;;;;;;;;;5013929;28;20570;-82
2022/11/28 07:55:51;;;;;;;12.45;5.68;;;;;;;;;;5008528;28;20585;-82
2022/11/28 07:58:31;;;;;;;24.98;5.78;;;;;;;;;;5014409;28;20052;-82
2022/11/28 08:01:07;;;;;;;19.60;6.68;;;;;;;;;;5014671;28;20527;-83
2022/11/28 08:03:37;;;;;;;18.17;8.55;;;;;;;;;;5010999;28;20628;-82
2022/11/28 08:06:23;;;;;;;18.70;9.77;;;;;;;;;;5030393;28;20068;-83
2022/11/28 08:08:57;;;;;;;21.05;6.40;;;;;;;;;;5011848;28;20566;-82
2022/11/28 08:11:31;;;;;;;15.05;5.60;;;;;;;;;;5015787;28;20107;-83
2022/11/28 08:14:00;;;;;;;18.75;5.63;;;;;;;;;;5014690;28;20528;-82
2022/11/28 08:16:31;;;;;;;15.15;4.43;;;;;;;;;;5016515;28;20549;-82
2022/11/28 08:19:02;;;;;;;14.23;4.57;;;;;;;;;;5029664;28;20038;-82
2022/11/28 08:21:36;;;;;;;22.02;5.50;;;;;;;;;;5013743;28;20035;-82
2022/11/28 08:24:13;;;;;;;;;;;;;;;;;;;;;
2022/11/28 08:26:40;;;;;;;12.52;3.88;;;;;;;;;;5011348;28;41807;-79
2022/11/28 08:29:09;;;;;;;14.70;4.00;;;;;;;;;;4996883;28;20752;-79
2022/11/28 08:31:37;;;;;;;10.52;2.97;;;;;;;;;;5008961;28;20566;-79
2022/11/28 08:34:05;;;;;;;7.82;4.32;;;;;;;;;;4995860;28;20061;-79
2022/11/28 08:36:34;;;;;;;16.75;5.57;;;;;;;;;;5011203;28;20042;-79
2022/11/28 08:39:03;;;;;;;14.32;3.40;;;;;;;;;;4994314;28;20038;-79
2022/11/28 08:41:29;;;;;;;13.73;4.60;;;;;;;;;;5006573;28;20048;-79
2022/11/28 08:43:55;;;;;;;14.73;4.25;;;;;;;;;;5012404;28;20050;-78
2022/11/28 08:46:21;;;;;;;13.35;5.07;;;;;;;;;;4994883;28;20121;-78
2022/11/28 08:48:48;;;;;;;23.48;6.13;;;;;;;;;;5002630;28;20112;-80
2022/11/28 08:51:16;;;;;;;10.65;3.58;;;;;;;;;;5011821;28;20038;-79
2022/11/28 08:53:47;;;;;;;10.07;3.83;;;;;;;;;;5008128;28;20523;-79
2022/11/28 08:56:13;;;;;;;10.00;3.85;;;;;;;;;;5027872;28;20560;-78
2022/11/28 08:58:42;;;;;;;9.43;3.83;;;;;;;;;;5027352;28;20042;-79
2022/11/28 09:01:19;;;;;;;14.02;4.72;;;;;;;;;;5028971;28;20143;-80
2022/11/28 09:03:46;;;;;;;12.68;4.55;;;;;;;;;;5011758;28;20054;-80
2022/11/28 09:06:13;;;;;;;10.68;4.43;;;;;;;;;;5029661;28;20042;-79
2022/11/28 09:08:39;;;;;;;10.52;4.30;;;;;;;;;;5011549;28;20125;-80
2022/11/28 09:11:06;;;;;;;9.38;3.75;;;;;;;;;;5026895;28;20607;-80
2022/11/28 09:13:33;;;;;;;5.78;3.63;;;;;;;;;;5013340;28;20041;-80
2022/11/28 09:15:59;;;;;;;15.60;3.58;;;;;;;;;;5008881;28;20097;-80
2022/11/28 09:18:26;;;;;;;9.93;3.95;;;;;;;;;;5010928;28;20472;-80
2022/11/28 09:21:04;;;;;;;10.10;3.72;;;;;;;;;;5027841;28;20046;-79
2022/11/28 09:23:30;;;;;;;12.05;4.20;;;;;;;;;;5012611;28;20838;-79
2022/11/28 09:25:59;;;;;;;13.55;4.85;;;;;;;;;;5010886;28;20045;-79
2022/11/28 09:28:27;;;;;;;9.68;4.53;;;;;;;;;;5012839;28;20043;-79
2022/11/28 09:31:05;;;;;;;14.60;5.10;;;;;;;;;;5010680;28;20050;-79
2022/11/28 09:33:31;;;;;;;11.80;4.60;;;;;;;;;;5006133;28;20057;-81
2022/11/28 09:35:57;;;;;;;11.10;4.97;;;;;;;;;;5009930;28;20049;-82
2022/11/28 09:38:23;;;;;;;13.18;4.82;;;;;;;;;;5012303;28;20038;-81
2022/11/28 09:40:50;;;;;;;14.55;5.13;;;;;;;;;;5010656;28;20435;-81
2022/11/28 09:43:16;;;;;;;20.92;5.90;;;;;;;;;;5026855;28;20679;-81
2022/11/28 09:45:43;;;;;;;15.70;4.68;;;;;;;;;;5024595;28;20113;-81
2022/11/28 09:48:29;;;;;;;12.15;4.35;;;;;;;;;;5027294;28;20034;-81
2022/11/28 09:51:13;;;;;;;19.42;4.93;;;;;;;;;;5025731;28;20148;-81
2022/11/28 09:53:44;;;;;;;14.90;5.00;;;;;;;;;;5009941;28;20555;-81
2022/11/28 09:56:18;;;;;;;15.10;4.50;;;;;;;;;;5009359;28;20468;-82
2022/11/28 09:58:55;;;;;;;10.88;4.75;;;;;;;;;;5010902;28;20115;-82
2022/11/28 10:01:37;;;;;;;16.38;5.05;;;;;;;;;;5011479;28;20077;-81
2022/11/28 10:04:03;;;;;;;9.40;4.53;;;;;;;;;;5010839;28;20069;-81
2022/11/28 10:06:48;;;;;;;15.38;3.83;;;;;;;;;;5009477;28;20046;-81
2022/11/28 10:09:21;;;;;;;18.88;6.63;;;;;;;;;;5010499;28;20519;-81
2022/11/28 10:11:59;;;;;;;14.07;4.82;;;;;;;;;;5008886;28;20046;-81
2022/11/28 10:14:43;;;;;;;22.10;5.28;;;;;;;;;;5008672;28;20045;-81
2022/11/28 10:17:45;;;;;;;11.43;4.68;;;;;;;;;;5026047;28;20054;-81
2022/11/28 10:20:11;;;;;;;10.70;3.90;;;;;;;;;;4972616;28;20056;-81
2022/11/28 10:22:41;;;;;;;7.38;4.13;;;;;;;;;;5006132;28;20054;-81
2022/11/28 10:25:13;;;;;;;10.98;3.85;;;;;;;;;;5015459;28;20058;-81
2022/11/28 10:27:40;;;;;;;15.60;4.07;;;;;;;;;;5008564;28;20072;-81
2022/11/28 10:30:26;;;;;;;19.98;4.32;;;;;;;;;;5009162;28;20109;-81
2022/11/28 10:32:58;;;;;;;14.80;3.70;;;;;;;;;;5009757;28;20050;-81
2022/11/28 10:35:27;;;;;;;11.50;6.32;;;;;;;;;;5008471;28;20472;-81
2022/11/28 10:37:56;;;;;;;15.90;4.68;;;;;;;;;;5009513;28;20840;-82
2022/11/28 10:40:31;;;;;;;15.13;5.30;;;;;;;;;;5011188;28;20040;-82
2022/11/28 10:46:10;;;;;;;15.15;4.53;;;;;;;;;;5009650;28;20061;-81
2022/11/28 10:48:40;;;;;;;13.52;3.28;;;;;;;;;;5009073;28;20541;-81
2022/11/28 10:51:21;;;;;;;13.65;5.40;;;;;;;;;;5026052;28;20702;-79
2022/11/28 10:53:47;;;;;;;15.57;4.20;;;;;;;;;;5027880;28;20108;-78
2022/11/28 10:56:19;;;;;;;8.32;3.33;;;;;;;;;;5005450;28;20365;-79
2022/11/28 10:59:06;;;;;;;13.55;3.92;;;;;;;;;;5028579;28;20045;-79
2022/11/28 11:01:35;;;;;;;15.07;3.60;;;;;;;;;;5013762;28;20232;-79
2022/11/28 11:04:18;;;;;;;7.35;5.25;;;;;;;;;;5014142;28;21356;-79
2022/11/28 11:07:01;;;;;;;8.43;3.42;;;;;;;;;;5014360;28;20539;-79
2022/11/28 11:09:30;;;;;;;20.60;4.80;;;;;;;;;;5029853;28;20049;-80
2022/11/28 11:12:03;;;;;;;8.68;4.38;;;;;;;;;;5012536;28;20038;-79
2022/11/28 11:14:47;;;;;;;9.88;4.65;;;;;;;;;;5022542;28;20442;-81
2022/11/28 11:17:33;;;;;;;12.50;3.88;;;;;;;;;;5024925;28;20587;-78
2022/11/28 11:20:24;;;;;;;10.35;4.22;;;;;;;;;;5035127;28;20591;-87
2022/11/28 11:23:15;;;;;;;13.90;3.67;;;;;;;;;;5034586;28;20905;-87
2022/11/28 11:26:12;;;;;;;;;;;;;;;;;;;;;
2022/11/28 11:29:04;;;;;;;;;;;;;;;;;;;;;
2022/11/28 11:32:02;;;;;;;7.95;3.30;;;;;;;;;;5015698;28;45561;-88
2022/11/28 11:34:59;;;;;;;17.73;4.63;;;;;;;;;;5017383;28;20034;-87
2022/11/28 11:37:33;;;;;;;13.80;3.65;;;;;;;;;;4998365;28;20109;-87
2022/11/28 11:40:27;;;;;;;;;;;;;;;;;;;;;
2022/11/28 11:43:09;;;;;;;9.98;3.63;;;;;;;;;;4994909;28;42073;-88
2022/11/28 11:45:41;;;;;;;7.28;3.30;;;;;;;;;;4995683;28;20166;-84
2022/11/28 11:48:30;;;;;;;19.05;2.92;;;;;;;;;;4995246;28;20046;-82
2022/11/28 11:51:09;;;;;;;;;;;;;;;;;;;;;
2022/11/28 11:53:56;;;;;;;10.75;2.97;;;;;;;;;;4994482;28;45819;-82
2022/11/28 11:56:28;;;;;;;11.75;3.10;;;;;;;;;;4994270;28;20065;-82
2022/11/28 11:59:04;;;;;;;7.93;4.32;;;;;;;;;;4978902;28;20568;-81
2022/11/28 12:01:34;;;;;;;14.25;3.65;;;;;;;;;;4998354;28;20050;-82
2022/11/28 12:04:05;;;;;;;11.68;3.78;;;;;;;;;;5013672;28;20351;-80
2022/11/28 12:06:38;;;;;;;11.43;3.97;;;;;;;;;;5010365;28;20046;-80
2022/11/28 12:09:07;;;;;;;8.98;4.45;;;;;;;;;;5028788;28;20137;-82
2022/11/28 12:12:00;;;;;;;8.25;2.42;;;;;;;;;;5028015;28;20034;-82
2022/11/28 12:14:43;;;;;;;8.25;2.28;;;;;;;;;;5010463;28;20737;-82
2022/11/28 12:17:32;;;;;;;7.07;2.38;;;;;;;;;;5006639;28;20054;-82
2022/11/28 12:20:08;;;;;;;9.57;2.97;;;;;;;;;;5009587;28;20555;-80
2022/11/28 12:22:42;;;;;;;9.70;3.20;;;;;;;;;;5026966;28;20135;-81
2022/11/28 12:25:35;;;;;;;12.38;3.55;;;;;;;;;;5013258;28;20057;-81
2022/11/28 12:28:12;;;;;;;19.73;3.90;;;;;;;;;;5011142;28;20050;-81
2022/11/28 12:30:53;;;;;;;12.75;2.80;;;;;;;;;;5009670;28;20098;-82
2022/11/28 12:33:31;;;;;;;19.07;5.27;;;;;;;;;;5012994;28;20452;-83
2022/11/28 12:36:15;;;;;;;8.88;3.15;;;;;;;;;;5012934;28;20812;-83
2022/11/28 12:39:00;;;;;;;12.13;3.97;;;;;;;;;;5029213;28;20526;-78
2022/11/28 12:41:42;;;;;;;9.50;3.38;;;;;;;;;;5011030;28;20038;-79
2022/11/28 12:44:29;;;;;;;16.85;2.58;;;;;;;;;;5012811;28;20046;-78
2022/11/28 12:47:00;;;;;;;7.15;2.47;;;;;;;;;;5011510;28;20049;-78
2022/11/28 12:49:44;;;;;;;14.45;3.28;;;;;;;;;;5013110;28;20045;-79
2022/11/28 12:52:29;;;;;;;6.35;2.20;;;;;;;;;;5027251;28;20041;-78
2022/11/28 12:55:20;;;;;;;7.20;1.95;;;;;;;;;;5011281;28;20049;-78
2022/11/28 12:58:05;;;;;;;4.78;2.42;;;;;;;;;;5011640;28;20128;-84
2022/11/28 13:00:33;;;;;;;11.02;3.30;;;;;;;;;;5014452;28;20586;-79
2022/11/28 13:03:21;;;;;;;8.57;3.13;;;;;;;;;;5013203;28;20047;-78
2022/11/28 13:05:56;;;;;;;9.20;2.13;;;;;;;;;;5009073;28;20046;-79
2022/11/28 13:08:28;;;;;;;5.80;2.15;;;;;;;;;;5013095;28;20042;-79
2022/11/28 13:10:56;;;;;;;;;;;;;;;;;;5010520;28;20042;-79
2022/11/28 13:13:31;;;;;;;5.53;1.52;;;;;;;;;;5027350;28;19928;-79
2022/11/28 13:16:03;;;;;;;8.10;1.70;;;;;;;;;;5028934;28;20055;-79
2022/11/28 13:18:34;;;;;;;5.93;1.60;;;;;;;;;;5014058;28;20049;-78
2022/11/28 13:21:10;;;;;;;3.78;2.13;;;;;;;;;;5011447;28;20046;-78
2022/11/28 13:23:50;;;;;;;10.20;1.83;;;;;;;;;;5029517;28;20045;-78
2022/11/28 13:26:26;;;;;;;7.85;2.78;;;;;;;;;;5012227;28;20057;-79
2022/11/28 13:29:04;;;;;;;4.13;1.13;;;;;;;;;;5009319;28;20048;-79
2022/11/28 13:31:54;;;;;;;8.25;2.80;;;;;;;;;;5009694;28;20034;-78
2022/11/28 13:34:20;;;;;;;3.08;1.52;;;;;;;;;;5012244;28;20048;-80
2022/11/28 13:37:12;;;;;;;3.58;1.70;;;;;;;;;;5029145;28;20049;-80
2022/11/28 13:39:47;;;;;;;6.67;2.23;;;;;;;;;;5006245;28;20115;-80
2022/11/28 13:42:19;;;;;;;4.85;1.77;;;;;;;;;;5013289;28;20049;-79
2022/11/28 13:44:57;;;;;;;;;;;;;;;;;;5012944;28;20635;-80
2022/11/28 13:47:26;;;;;;;6.88;2.05;;;;;;;;;;5011871;28;19926;-79
2022/11/28 13:50:12;;;;;;;5.85;1.92;;;;;;;;;;5028806;28;20042;-79
2022/11/28 13:52:44;;;;;;;10.07;1.70;;;;;;;;;;5012204;28;20049;-79
2022/11/28 13:55:32;;;;;;;4.40;1.92;;;;;;;;;;5028951;28;20073;-79
2022/11/28 13:58:09;;;;;;;9.68;2.35;;;;;;;;;;5028312;28;20519;-78
2022/11/28 14:00:38;;;;;;;6.68;1.85;;;;;;;;;;5012704;28;20744;-78
2022/11/28 14:03:08;;;;;;;7.68;3.15;;;;;;;;;;5027963;28;20053;-78
2022/11/28 14:05:40;;;;;;;7.80;2.63;;;;;;;;;;5025897;28;20054;-78
2022/11/28 14:08:06;;;;;;;13.50;4.10;;;;;;;;;;5012699;28;20049;-79
2022/11/28 14:10:38;;;;;;;10.23;2.60;;;;;;;;;;5009548;28;20046;-79
2022/11/28 14:13:30;;;;;;;6.00;2.13;;;;;;;;;;5022085;28;20354;-79
2022/11/28 14:15:56;;;;;;;;;;;;;;;;;;5012233;28;20569;-80
2022/11/28 14:18:26;;;;;;;5.60;1.80;;;;;;;;;;5026467;28;20033;-80
2022/11/28 14:20:58;;;;;;;11.23;4.05;;;;;;;;;;5019003;28;20621;-80
2022/11/28 14:23:43;;;;;;;14.23;3.17;;;;;;;;;;5011987;28;20312;-80
2022/11/28 14:26:38;;;;;;;5.40;1.95;;;;;;;;;;5011263;28;20104;-80
2022/11/28 14:29:17;;;;;;;6.72;2.10;;;;;;;;;;4999866;28;20054;-80
2022/11/28 14:31:52;;;;;;;9.32;2.83;;;;;;;;;;4997538;28;20046;-79
2022/11/28 14:34:39;;;;;;;6.90;2.72;;;;;;;;;;5015473;28;20034;-79
2022/11/28 14:37:24;;;;;;;6.28;2.03;;;;;;;;;;5031959;28;20521;-79
2022/11/28 14:39:51;;;;;;;11.73;3.40;;;;;;;;;;5016291;28;20057;-79
2022/11/28 14:42:25;;;;;;;9.90;3.05;;;;;;;;;;5017424;28;20041;-80
2022/11/28 14:44:55;;;;;;;9.43;3.08;;;;;;;;;;5025645;28;20044;-79
2022/11/28 14:47:41;;;;;;;10.90;2.40;;;;;;;;;;5012952;28;20044;-79
2022/11/28 14:50:08;;;;;;;8.60;2.58;;;;;;;;;;5019040;28;20054;-80
2022/11/28 14:52:57;;;;;;;7.15;2.28;;;;;;;;;;5033481;28;20054;-79
2022/11/28 14:55:26;;;;;;;7.10;2.08;;;;;;;;;;5017490;28;21315;-79
2022/11/28 14:58:07;;;;;;;5.05;2.15;;;;;;;;;;5025871;28;20092;-79
2022/11/28 15:00:49;;;;;;;8.48;2.38;;;;;;;;;;5032238;28;20050;-79
2022/11/28 15:03:34;;;;;;;6.22;1.98;;;;;;;;;;5049841;28;20045;-79
2022/11/28 15:06:22;;;;;;;13.20;3.63;;;;;;;;;;5030828;28;20046;-80
2022/11/28 15:08:57;;;;;;;7.05;2.30;;;;;;;;;;5035555;28;20153;-80
2022/11/28 15:11:31;;;;;;;7.35;2.40;;;;;;;;;;5014577;28;20586;-79
2022/11/28 15:14:18;;;;;;;16.92;2.75;;;;;;;;;;5014368;28;20129;-80
2022/11/28 15:16:46;;;;;;;11.98;3.50;;;;;;;;;;5016053;28;20041;-80
2022/11/28 15:19:22;;;;;;;9.82;2.42;;;;;;;;;;5031264;28;20100;-80
2022/11/28 15:21:52;;;;;;;6.63;2.42;;;;;;;;;;5030628;28;20104;-80
2022/11/28 15:24:27;;;;;;;7.35;1.95;;;;;;;;;;5014137;28;20050;-80
2022/11/28 15:27:13;;;;;;;6.22;2.08;;;;;;;;;;5014518;28;20080;-80
2022/11/28 15:29:39;;;;;;;13.18;3.53;;;;;;;;;;5014435;28;20034;-80
2022/11/28 15:32:08;;;;;;;6.88;3.47;;;;;;;;;;5014453;28;20448;-80
2022/11/28 15:34:56;;;;;;;11.50;2.60;;;;;;;;;;5019503;28;20088;-80
2022/11/28 15:37:32;;;;;;;14.38;3.15;;;;;;;;;;5015311;28;20157;-80
2022/11/28 15:40:08;;;;;;;9.20;3.75;;;;;;;;;;5014685;28;20045;-80
2022/11/28 15:42:36;;;;;;;12.70;2.83;;;;;;;;;;5014389;28;20053;-80
2022/11/28 15:45:17;;;;;;;14.18;3.80;;;;;;;;;;5018448;28;20065;-80
2022/11/28 15:47:53;;;;;;;7.00;2.20;;;;;;;;;;5013062;28;20042;-80
2022/11/28 15:50:24;;;;;;;8.98;3.13;;;;;;;;;;5014779;28;20058;-80
2022/11/28 15:52:57;;;;;;;13.73;3.20;;;;;;;;;;5031826;28;20046;-80
2022/11/28 15:55:40;;;;;;;12.25;3.85;;;;;;;;;;5020664;28;20052;-80
2022/11/28 15:58:30;;;;;;;16.02;5.38;;;;;;;;;;5013295;28;20047;-80
2022/11/28 16:00:58;;;;;;;8.77;2.33;;;;;;;;;;5013751;28;20072;-80
2022/11/28 16:03:27;;;;;;;14.85;2.03;;;;;;;;;;5012945;28;20081;-81
2022/11/28 16:05:59;;;;;;;3.03;1.05;;;;;;;;;;5013669;28;20129;-80
2022/11/28 16:08:39;;;;;;;3.72;1.27;;;;;;;;;;5018420;28;20042;-80
2022/11/28 16:11:06;;;;;;;3.00;1.20;;;;;;;;;;5010587;28;20061;-81
2022/11/28 16:13:43;;;;;;;1.92;1.23;;;;;;;;;;5029133;28;20061;-81
2022/11/28 16:16:25;;;;;;;3.88;1.10;;;;;;;;;;5027638;28;20439;-81
2022/11/28 16:18:58;;;;;;;1.63;0.88;;;;;;;;;;5025658;28;20480;-81
2022/11/28 16:21:31;;;;;;;2.90;1.17;;;;;;;;;;5017103;28;20499;-80
2022/11/28 16:24:24;;;;;;;4.30;1.00;;;;;;;;;;5025273;28;20057;-81
2022/11/28 16:27:04;;;;;;;3.42;1.50;;;;;;;;;;5027006;28;20044;-78
2022/11/28 16:29:43;;;;;;;4.43;2.10;;;;;;;;;;5026270;28;20037;-79
2022/11/28 16:32:20;;;;;;;3.05;1.15;;;;;;;;;;5029839;28;20034;-79
2022/11/28 16:34:50;;;;;;;1.73;1.27;;;;;;;;;;5013362;28;20041;-79
2022/11/28 16:37:29;;;;;;;9.02;2.97;;;;;;;;;;5011642;28;21229;-80
2022/11/28 16:40:17;;;;;;;3.25;1.52;;;;;;;;;;5029960;28;20557;-80
2022/11/28 16:42:51;;;;;;;2.83;1.48;;;;;;;;;;5011507;28;20504;-79